createdAt,value
2018-12-26T00:01:34.580Z,9.03
2018-12-26T00:04:06.024Z,8.90
2018-12-26T00:06:37.391Z,8.37
2018-12-26T00:09:09.170Z,8.77
2018-12-26T00:11:40.560Z,9.40
2018-12-26T00:14:11.919Z,9.13
2018-12-26T00:16:44.275Z,8.83
2018-12-26T00:19:15.638Z,9.67
2018-12-26T00:21:46.976Z,8.97
2018-12-26T00:24:18.673Z,8.50
2018-12-26T00:26:50.316Z,9.93
2018-12-26T00:29:21.736Z,8.67
2018-12-26T00:31:53.091Z,9.27
2018-12-26T00:34:24.537Z,8.90
2018-12-26T00:36:55.988Z,8.87
2018-12-26T00:39:27.439Z,10.20
2018-12-26T00:41:58.790Z,9.80
2018-12-26T00:44:30.242Z,9.97
2018-12-26T00:47:01.601Z,9.80
2018-12-26T00:49:33.041Z,8.87
2018-12-26T00:52:04.399Z,9.80
2018-12-26T00:54:35.859Z,9.60
2018-12-26T00:57:07.301Z,9.63
2018-12-26T00:59:38.955Z,9.77
2018-12-26T01:02:10.295Z,9.07
2018-12-26T01:04:41.736Z,9.60
2018-12-26T01:07:13.135Z,9.73
2018-12-26T01:09:44.539Z,9.13
2018-12-26T01:12:16.342Z,9.83
2018-12-26T01:14:47.778Z,9.33
2018-12-26T01:17:19.303Z,10.03
2018-12-26T01:19:50.871Z,10.03
2018-12-26T01:22:22.532Z,9.93
2018-12-26T01:24:53.966Z,9.93
2018-12-26T01:27:25.318Z,9.67
2018-12-26T01:29:56.791Z,9.50
2018-12-26T01:32:28.223Z,9.37
2018-12-26T01:34:59.745Z,9.27
2018-12-26T01:37:31.234Z,9.47
2018-12-26T01:40:02.682Z,9.40
2018-12-26T01:42:34.059Z,9.50
2018-12-26T01:45:06.191Z,9.60
2018-12-26T01:47:37.547Z,10.07
2018-12-26T01:50:08.990Z,10.13
2018-12-26T01:52:41.498Z,8.93
2018-12-26T01:55:12.960Z,9.93
2018-12-26T01:57:44.341Z,9.63
2018-12-26T02:00:15.753Z,9.93
2018-12-26T02:02:47.152Z,9.87
2018-12-26T02:05:18.648Z,8.83
2018-12-26T02:07:50.042Z,9.57
2018-12-26T02:10:21.429Z,10.10
2018-12-26T02:12:52.872Z,9.17
2018-12-26T02:15:24.263Z,9.17
2018-12-26T02:17:55.657Z,9.80
2018-12-26T02:20:27.349Z,9.67
2018-12-26T02:22:58.757Z,9.33
2018-12-26T02:25:30.162Z,9.73
2018-12-26T02:28:01.556Z,8.50
2018-12-26T02:30:32.976Z,10.20
2018-12-26T02:33:04.350Z,8.83
2018-12-26T02:35:35.812Z,8.73
2018-12-26T02:38:07.472Z,9.00
2018-12-26T02:40:38.961Z,9.37
2018-12-26T02:43:10.411Z,9.00
2018-12-26T02:45:41.846Z,9.50
2018-12-26T02:48:13.538Z,8.77
2018-12-26T02:50:44.955Z,8.87
2018-12-26T02:53:16.299Z,10.40
2018-12-26T02:55:47.699Z,8.90
2018-12-26T02:58:19.175Z,9.87
2018-12-26T03:00:50.618Z,8.43
2018-12-26T03:03:21.977Z,9.10
2018-12-26T03:05:54.750Z,9.23
2018-12-26T03:08:26.104Z,9.30
2018-12-26T03:10:58.488Z,8.53
2018-12-26T03:13:29.930Z,8.30
2018-12-26T03:16:01.314Z,8.47
2018-12-26T03:18:33.102Z,9.30
2018-12-26T03:21:04.856Z,8.67
2018-12-26T03:23:36.992Z,8.80
2018-12-26T03:26:08.414Z,8.00
2018-12-26T03:28:39.761Z,8.10
2018-12-26T03:31:11.484Z,8.63
2018-12-26T03:33:43.604Z,8.60
2018-12-26T03:36:15.105Z,8.67
2018-12-26T03:38:46.759Z,9.63
2018-12-26T03:41:18.214Z,9.00
2018-12-26T03:43:50.480Z,8.27
2018-12-26T03:46:22.149Z,8.53
2018-12-26T03:48:53.626Z,9.07
2018-12-26T03:51:25.003Z,9.67
2018-12-26T03:53:56.347Z,9.13
2018-12-26T03:56:27.734Z,9.67
2018-12-26T03:58:59.120Z,8.67
2018-12-26T04:01:30.561Z,8.60
2018-12-26T04:04:01.920Z,9.53
2018-12-26T04:06:33.365Z,9.60
2018-12-26T04:09:06.508Z,8.83
2018-12-26T04:11:38.174Z,8.30
2018-12-26T04:14:09.722Z,8.00
2018-12-26T04:16:41.354Z,9.43
2018-12-26T04:19:12.875Z,8.77
2018-12-26T04:21:44.716Z,8.57
2018-12-26T04:24:16.473Z,8.67
2018-12-26T04:26:47.905Z,8.80
2018-12-26T04:29:19.327Z,9.37
2018-12-26T04:31:51.032Z,7.87
2018-12-26T04:34:22.415Z,8.67
2018-12-26T04:36:53.816Z,8.40
2018-12-26T04:39:25.203Z,8.87
2018-12-26T04:41:56.918Z,8.07
2018-12-26T04:44:28.606Z,9.40
2018-12-26T04:47:00.101Z,8.60
2018-12-26T04:49:31.523Z,9.43
2018-12-26T04:52:02.940Z,9.17
2018-12-26T04:54:34.288Z,9.13
2018-12-26T04:57:06.042Z,8.63
2018-12-26T04:59:37.421Z,9.20
2018-12-26T05:02:08.839Z,8.73
2018-12-26T05:04:40.240Z,9.40
2018-12-26T05:07:11.705Z,8.77
2018-12-26T05:09:43.188Z,8.87
2018-12-26T05:12:14.689Z,10.17
2018-12-26T05:14:46.029Z,8.70
2018-12-26T05:17:17.909Z,10.27
2018-12-26T05:19:49.529Z,10.40
2018-12-26T05:22:21.028Z,11.27
2018-12-26T05:24:52.367Z,11.77
2018-12-26T05:27:23.758Z,10.10
2018-12-26T05:29:55.159Z,10.20
2018-12-26T05:32:26.618Z,10.57
2018-12-26T05:34:59.311Z,10.50
2018-12-26T05:37:30.718Z,10.10
2018-12-26T05:40:02.083Z,11.00
2018-12-26T05:42:33.487Z,10.20
2018-12-26T05:45:05.374Z,10.93
2018-12-26T05:47:37.120Z,11.43
2018-12-26T05:50:08.467Z,12.10
2018-12-26T05:52:39.907Z,11.77
2018-12-26T05:55:11.301Z,12.57
2018-12-26T05:57:43.253Z,12.47
2018-12-26T06:00:15.227Z,13.37
2018-12-26T06:02:46.631Z,12.40
2018-12-26T06:05:18.069Z,12.57
2018-12-26T06:07:49.646Z,11.60
2018-12-26T06:10:21.043Z,12.73
2018-12-26T06:12:52.467Z,11.77
2018-12-26T06:15:23.838Z,12.13
2018-12-26T06:17:55.243Z,11.77
2018-12-26T06:20:26.939Z,11.93
2018-12-26T06:22:58.427Z,12.47
2018-12-26T06:25:31.795Z,12.73
2018-12-26T06:28:03.200Z,12.93
2018-12-26T06:30:34.997Z,11.80
2018-12-26T06:33:07.422Z,12.77
2018-12-26T06:35:39.295Z,11.13
2018-12-26T06:38:10.740Z,13.17
2018-12-26T06:40:42.141Z,12.63
2018-12-26T06:43:13.535Z,13.37
2018-12-26T06:45:45.234Z,12.33
2018-12-26T06:48:16.651Z,11.87
2018-12-26T06:50:48.042Z,12.37
2018-12-26T06:53:19.892Z,12.53
2018-12-26T06:55:51.247Z,12.40
2018-12-26T06:58:22.686Z,12.87
2018-12-26T07:00:54.061Z,12.87
2018-12-26T07:03:26.165Z,11.67
2018-12-26T07:05:57.669Z,11.67
2018-12-26T07:08:29.077Z,10.60
2018-12-26T07:11:00.472Z,11.20
2018-12-26T07:13:31.885Z,11.90
2018-12-26T07:16:03.607Z,11.67
2018-12-26T07:18:35.100Z,10.40
2018-12-26T07:21:06.769Z,10.03
2018-12-26T07:23:38.205Z,10.03
2018-12-26T07:26:09.591Z,11.73
2018-12-26T07:28:40.994Z,10.60
2018-12-26T07:31:12.399Z,9.60
2018-12-26T07:33:44.118Z,10.13
2018-12-26T07:36:15.532Z,11.10
2018-12-26T07:38:47.006Z,10.73
2018-12-26T07:41:18.578Z,10.00
2018-12-26T07:43:50.612Z,10.80
2018-12-26T07:46:22.030Z,10.40
2018-12-26T07:48:53.753Z,10.83
2018-12-26T07:51:27.228Z,11.13
2018-12-26T07:53:58.672Z,12.03
2018-12-26T07:56:30.072Z,12.20
2018-12-26T07:59:01.523Z,11.77
2018-12-26T08:01:33.004Z,11.20
2018-12-26T08:04:04.500Z,10.83
2018-12-26T08:06:36.694Z,9.53
2018-12-26T08:09:08.102Z,11.30
2018-12-26T08:11:42.081Z,8.73
2018-12-26T08:14:13.457Z,9.50
2018-12-26T08:16:44.863Z,9.53
2018-12-26T08:19:16.267Z,12.90
2018-12-26T08:21:47.662Z,13.63
2018-12-26T08:24:19.135Z,9.67
2018-12-26T08:26:50.562Z,9.47
2018-12-26T08:29:21.971Z,8.70
2018-12-26T08:31:53.704Z,8.93
2018-12-26T08:34:25.516Z,9.27
2018-12-26T08:36:57.348Z,9.67
2018-12-26T08:39:28.882Z,9.60
2018-12-26T08:42:00.286Z,9.80
2018-12-26T08:44:31.688Z,8.73
2018-12-26T08:47:03.832Z,8.83
2018-12-26T08:49:35.319Z,7.97
2018-12-26T08:52:07.356Z,6.90
2018-12-26T08:54:38.829Z,6.50
2018-12-26T08:57:10.621Z,6.10
2018-12-26T08:59:42.031Z,6.23
2018-12-26T09:02:13.449Z,6.23
2018-12-26T09:04:45.274Z,6.73
2018-12-26T09:07:16.654Z,8.60
2018-12-26T09:09:48.080Z,7.30
2018-12-26T09:12:19.731Z,7.10
2018-12-26T09:14:51.230Z,6.77
2018-12-26T09:17:22.927Z,8.10
2018-12-26T09:19:54.397Z,7.43
2018-12-26T09:22:25.769Z,8.77
2018-12-26T09:24:57.172Z,8.60
2018-12-26T09:27:28.659Z,7.93
2018-12-26T09:30:00.396Z,8.50
2018-12-26T09:32:31.769Z,7.53
2018-12-26T09:35:03.289Z,7.80
2018-12-26T09:37:34.711Z,7.40
2018-12-26T09:40:06.699Z,7.67
2018-12-26T09:42:38.089Z,8.67
2018-12-26T09:45:09.630Z,8.63
2018-12-26T09:47:40.991Z,8.63
2018-12-26T09:50:12.677Z,9.27
2018-12-26T09:52:44.560Z,8.43
2018-12-26T09:55:17.037Z,9.27
2018-12-26T09:57:50.483Z,9.13
2018-12-26T10:00:21.861Z,9.27
2018-12-26T10:02:56.267Z,8.20
2018-12-26T10:05:27.644Z,9.20
2018-12-26T10:07:59.411Z,8.20
2018-12-26T10:10:31.267Z,8.93
2018-12-26T10:13:02.711Z,9.00
2018-12-26T10:15:34.164Z,8.67
2018-12-26T10:18:06.659Z,8.90
2018-12-26T10:20:38.094Z,9.10
2018-12-26T10:23:09.877Z,8.63
2018-12-26T10:25:41.764Z,9.63
2018-12-26T10:28:13.479Z,9.43
2018-12-26T10:30:44.920Z,8.43
2018-12-26T10:33:17.042Z,10.60
2018-12-26T10:35:48.423Z,9.93
2018-12-26T10:38:19.926Z,9.77
2018-12-26T10:40:51.292Z,9.70
2018-12-26T10:43:22.672Z,9.33
2018-12-26T10:45:54.452Z,9.53
2018-12-26T10:48:25.913Z,9.10
2018-12-26T10:50:57.299Z,8.80
2018-12-26T10:53:29.129Z,8.53
2018-12-26T10:56:00.588Z,9.47
2018-12-26T10:58:32.937Z,8.90
2018-12-26T11:01:04.416Z,9.83
2018-12-26T11:03:38.449Z,10.20
2018-12-26T11:06:10.892Z,10.27
2018-12-26T11:08:42.451Z,8.50
2018-12-26T11:11:14.460Z,9.13
2018-12-26T11:13:45.836Z,9.73
2018-12-26T11:16:17.363Z,10.13
2018-12-26T11:18:49.687Z,10.43
2018-12-26T11:21:21.134Z,9.33
2018-12-26T11:23:52.577Z,11.33
2018-12-26T11:26:24.015Z,10.77
2018-12-26T11:28:55.692Z,10.43
2018-12-26T11:31:27.071Z,11.03
2018-12-26T11:33:58.538Z,11.80
2018-12-26T11:36:30.022Z,11.23
2018-12-26T11:39:01.731Z,11.13
2018-12-26T11:41:33.559Z,12.00
2018-12-26T11:44:04.967Z,10.97
2018-12-26T11:46:36.335Z,11.70
2018-12-26T11:49:07.775Z,11.60
2018-12-26T11:51:39.258Z,12.33
2018-12-26T11:54:10.744Z,12.80
2018-12-26T11:56:42.195Z,11.77
2018-12-26T11:59:13.553Z,12.57
2018-12-26T12:01:46.455Z,12.40
2018-12-26T12:04:17.884Z,12.50
2018-12-26T12:06:49.320Z,11.70
2018-12-26T12:09:20.890Z,12.47
2018-12-26T12:11:52.349Z,12.00
2018-12-26T12:14:24.895Z,12.57
2018-12-26T12:16:56.257Z,12.63
2018-12-26T12:19:27.681Z,11.80
2018-12-26T12:21:59.509Z,11.83
2018-12-26T12:24:31.224Z,11.07
2018-12-26T12:27:02.949Z,12.30
2018-12-26T12:29:36.108Z,13.43
2018-12-26T12:32:09.876Z,12.30
2018-12-26T12:34:41.293Z,13.43
2018-12-26T12:37:13.080Z,11.67
2018-12-26T12:39:44.595Z,10.97
2018-12-26T12:42:16.238Z,10.20
2018-12-26T12:44:48.121Z,9.93
2018-12-26T12:47:20.095Z,10.13
2018-12-26T12:49:51.631Z,10.13
2018-12-26T12:52:23.072Z,9.73
2018-12-26T12:54:54.534Z,11.93
2018-12-26T12:57:25.975Z,10.97
2018-12-26T12:59:57.863Z,11.03
2018-12-26T13:02:29.310Z,11.43
2018-12-26T13:05:01.235Z,11.73
2018-12-26T13:07:32.586Z,10.73
2018-12-26T13:10:06.104Z,11.67
2018-12-26T13:12:39.450Z,12.00
2018-12-26T13:15:11.240Z,11.80
2018-12-26T13:17:42.601Z,12.13
2018-12-26T13:20:14.059Z,12.20
2018-12-26T13:22:45.494Z,11.53
2018-12-26T13:25:19.343Z,11.43
2018-12-26T13:27:50.748Z,11.43
2018-12-26T13:30:22.215Z,11.50
2018-12-26T13:32:53.727Z,11.47
2018-12-26T13:35:25.346Z,10.73
2018-12-26T13:37:57.135Z,11.07
2018-12-26T13:40:28.693Z,11.93
2018-12-26T13:43:00.274Z,11.53
2018-12-26T13:45:32.042Z,11.80
2018-12-26T13:48:03.631Z,10.63
2018-12-26T13:50:35.055Z,11.40
2018-12-26T13:53:06.486Z,11.37
2018-12-26T13:55:38.418Z,10.67
2018-12-26T13:58:10.117Z,11.17
2018-12-26T14:00:41.569Z,12.27
2018-12-26T14:03:13.453Z,10.60
2018-12-26T14:05:44.896Z,11.23
2018-12-26T14:08:16.633Z,11.07
2018-12-26T14:10:48.095Z,9.87
2018-12-26T14:13:20.760Z,9.20
2018-12-26T14:15:52.266Z,8.90
2018-12-26T14:18:23.700Z,8.43
2018-12-26T14:20:56.190Z,7.83
2018-12-26T14:23:27.668Z,6.87
2018-12-26T14:25:59.069Z,4.83
2018-12-26T14:28:30.547Z,5.63
2018-12-26T14:31:01.971Z,4.90
2018-12-26T14:33:33.362Z,5.27
2018-12-26T14:36:08.049Z,4.17
2018-12-26T14:38:39.969Z,4.60
2018-12-26T14:41:11.510Z,4.03
2018-12-26T14:43:43.287Z,5.03
2018-12-26T14:46:14.989Z,4.30
2018-12-26T14:48:47.310Z,4.03
2018-12-26T14:51:26.418Z,4.17
2018-12-26T14:53:52.827Z,5.10
2018-12-26T14:56:25.306Z,4.53
2018-12-26T14:58:57.216Z,9.00
2018-12-26T15:01:28.899Z,8.20
2018-12-26T15:04:00.407Z,8.60
2018-12-26T15:06:34.045Z,7.60
2018-12-26T15:09:09.792Z,9.40
2018-12-26T15:11:41.256Z,8.40
2018-12-26T15:14:13.512Z,8.93
2018-12-26T15:16:45.438Z,10.60
2018-12-26T15:19:19.048Z,9.07
2018-12-26T15:21:50.527Z,9.77
2018-12-26T15:24:22.113Z,10.00
2018-12-26T15:26:56.629Z,10.30
2018-12-26T15:29:28.265Z,10.60
2018-12-26T15:31:59.684Z,10.87
2018-12-26T15:34:31.362Z,11.07
2018-12-26T15:37:02.892Z,12.43
2018-12-26T15:39:37.179Z,12.20
2018-12-26T15:42:08.732Z,11.97
2018-12-26T15:44:43.233Z,11.63
2018-12-26T15:47:14.745Z,15.20
2018-12-26T15:49:47.010Z,13.13
2018-12-26T15:52:18.806Z,10.97
2018-12-26T15:54:50.822Z,12.03
2018-12-26T15:57:22.435Z,11.70
2018-12-26T15:59:56.082Z,11.73
2018-12-26T16:02:27.606Z,11.20
2018-12-26T16:04:59.026Z,12.50
2018-12-26T16:07:30.576Z,14.03
2018-12-26T16:10:02.104Z,14.17
2018-12-26T16:12:33.558Z,12.70
2018-12-26T16:15:06.065Z,12.57
2018-12-26T16:17:37.912Z,11.87
2018-12-26T16:20:10.903Z,12.17
2018-12-26T16:22:42.314Z,12.33
2018-12-26T16:25:14.277Z,11.80
2018-12-26T16:27:46.020Z,13.17
2018-12-26T16:30:17.433Z,12.70
2018-12-26T16:32:49.155Z,11.67
2018-12-26T16:35:20.644Z,12.97
2018-12-26T16:37:52.135Z,12.57
2018-12-26T16:40:25.411Z,11.93
2018-12-26T16:42:58.215Z,12.37
2018-12-26T16:45:29.621Z,12.13
2018-12-26T16:48:01.256Z,12.27
2018-12-26T16:50:32.880Z,11.03
2018-12-26T16:53:04.332Z,12.50
2018-12-26T16:55:35.833Z,12.80
2018-12-26T16:58:07.386Z,13.83
2018-12-26T17:00:38.806Z,13.70
2018-12-26T17:03:10.250Z,14.97
2018-12-26T17:05:41.970Z,13.57
2018-12-26T17:08:13.458Z,12.50
2018-12-26T17:10:44.827Z,13.40
2018-12-26T17:13:16.230Z,13.50
2018-12-26T17:15:47.724Z,12.60
2018-12-26T17:18:19.196Z,12.90
2018-12-26T17:20:50.635Z,13.37
2018-12-26T17:23:22.062Z,13.77
2018-12-26T17:25:53.572Z,13.70
2018-12-26T17:28:25.239Z,14.87
2018-12-26T17:31:04.154Z,14.03
2018-12-26T17:33:29.955Z,13.10
2018-12-26T17:36:01.389Z,14.20
2018-12-26T17:38:32.818Z,12.17
2018-12-26T17:41:04.193Z,13.90
2018-12-26T17:43:35.635Z,12.93
2018-12-26T17:46:08.680Z,14.33
2018-12-26T17:48:42.100Z,14.23
2018-12-26T17:51:16.915Z,14.50
2018-12-26T17:54:16.064Z,14.43
2018-12-26T17:56:54.644Z,15.07
2018-12-26T17:59:51.595Z,13.90
2018-12-26T18:02:36.613Z,13.27
2018-12-26T18:05:08.199Z,12.20
2018-12-26T18:07:39.712Z,12.13
2018-12-26T18:10:11.198Z,12.40
2018-12-26T18:12:42.642Z,13.17
2018-12-26T18:15:14.527Z,12.23
2018-12-26T18:17:45.973Z,12.47
2018-12-26T18:20:17.329Z,13.93
2018-12-26T18:22:48.705Z,14.17
2018-12-26T18:25:20.238Z,13.10
2018-12-26T18:27:52.079Z,11.07
2018-12-26T18:30:23.468Z,11.20
2018-12-26T18:32:57.539Z,12.27
2018-12-26T18:35:28.981Z,13.03
2018-12-26T18:38:00.480Z,12.20
2018-12-26T18:40:31.964Z,14.93
2018-12-26T18:43:03.471Z,13.63
2018-12-26T18:45:34.901Z,12.53
2018-12-26T18:48:06.338Z,13.07
2018-12-26T18:50:37.741Z,14.40
2018-12-26T18:53:09.539Z,14.20
2018-12-26T18:55:40.966Z,15.77
2018-12-26T18:58:12.399Z,13.60
2018-12-26T19:00:43.847Z,13.73
2018-12-26T19:03:15.265Z,12.57
2018-12-26T19:05:46.655Z,13.13
2018-12-26T19:08:18.110Z,13.43
2018-12-26T19:10:49.449Z,12.93
2018-12-26T19:13:20.908Z,14.07
2018-12-26T19:15:52.442Z,14.17
2018-12-26T19:18:23.809Z,13.43
2018-12-26T19:20:55.290Z,11.77
2018-12-26T19:23:26.703Z,12.17
2018-12-26T19:25:58.123Z,12.67
2018-12-26T19:28:29.568Z,12.23
2018-12-26T19:31:01.038Z,12.87
2018-12-26T19:33:32.407Z,11.73
2018-12-26T19:36:03.828Z,12.23
2018-12-26T19:38:35.454Z,14.97
2018-12-26T19:41:06.926Z,14.67
2018-12-26T19:43:38.347Z,14.63
2018-12-26T19:46:09.831Z,13.30
2018-12-26T19:48:41.281Z,13.17
2018-12-26T19:51:13.036Z,14.27
2018-12-26T19:53:44.399Z,15.63
2018-12-26T19:56:19.445Z,13.20
2018-12-26T19:58:50.534Z,14.50
2018-12-26T20:01:24.165Z,13.03
2018-12-26T20:03:57.564Z,15.90
2018-12-26T20:06:32.249Z,17.63
2018-12-26T20:09:03.442Z,19.03
2018-12-26T20:11:36.133Z,18.30
2018-12-26T20:14:07.873Z,17.47
2018-12-26T20:16:40.314Z,16.67
2018-12-26T20:19:11.665Z,16.30
2018-12-26T20:21:44.145Z,21.47
2018-12-26T20:24:15.639Z,16.50
2018-12-26T20:26:48.533Z,16.37
2018-12-26T20:29:20.330Z,14.97
2018-12-26T20:31:56.948Z,15.57
2018-12-26T20:34:26.792Z,17.83
2018-12-26T20:36:58.283Z,19.33
2018-12-26T20:39:32.221Z,19.27
2018-12-26T20:42:04.774Z,18.33
2018-12-26T20:44:36.244Z,18.17
2018-12-26T20:47:07.698Z,18.27
2018-12-26T20:49:41.881Z,16.13
2018-12-26T20:52:13.383Z,15.00
2018-12-26T20:54:44.779Z,14.47
2018-12-26T20:57:16.166Z,15.30
2018-12-26T20:59:47.559Z,14.10
2018-12-26T21:02:18.970Z,14.40
2018-12-26T21:04:50.413Z,13.67
2018-12-26T21:07:22.172Z,14.17
2018-12-26T21:09:53.572Z,13.57
2018-12-26T21:12:25.044Z,11.57
2018-12-26T21:14:56.620Z,12.50
2018-12-26T21:17:28.084Z,12.47
2018-12-26T21:19:59.452Z,13.20
2018-12-26T21:22:30.950Z,14.97
2018-12-26T21:25:03.485Z,17.73
2018-12-26T21:27:34.880Z,14.90
2018-12-26T21:30:09.035Z,13.53
2018-12-26T21:32:41.486Z,14.07
2018-12-26T21:35:12.893Z,15.40
2018-12-26T21:37:44.380Z,14.93
2018-12-26T21:40:15.781Z,15.33
2018-12-26T21:42:47.187Z,16.20
2018-12-26T21:45:18.647Z,14.70
2018-12-26T21:47:50.044Z,14.73
2018-12-26T21:50:21.956Z,15.17
2018-12-26T21:52:53.402Z,14.00
2018-12-26T21:55:24.741Z,15.30
2018-12-26T21:57:57.277Z,14.17
2018-12-26T22:00:28.740Z,15.27
2018-12-26T22:03:00.114Z,13.67
2018-12-26T22:05:32.558Z,13.30
2018-12-26T22:08:05.403Z,12.27
2018-12-26T22:10:37.065Z,13.30
2018-12-26T22:13:08.455Z,13.37
2018-12-26T22:15:39.803Z,12.93
2018-12-26T22:18:11.194Z,13.90
2018-12-26T22:20:42.730Z,15.37
2018-12-26T22:23:14.217Z,16.47
2018-12-26T22:25:45.617Z,16.90
2018-12-26T22:28:18.043Z,17.43
2018-12-26T22:30:51.065Z,16.13
2018-12-26T22:33:23.200Z,18.10
2018-12-26T22:35:54.911Z,17.00
2018-12-26T22:38:26.409Z,18.17
2018-12-26T22:40:58.060Z,17.63
2018-12-26T22:43:29.583Z,18.00
2018-12-26T22:46:01.055Z,18.63
2018-12-26T22:48:32.503Z,17.20
2018-12-26T22:51:03.902Z,18.53
2018-12-26T22:53:35.305Z,17.30
2018-12-26T22:56:06.647Z,17.87
2018-12-26T22:58:38.111Z,18.90
2018-12-26T23:01:09.642Z,18.77
2018-12-26T23:03:41.138Z,22.60
2018-12-26T23:06:12.499Z,22.43
2018-12-26T23:08:43.916Z,20.27
2018-12-26T23:11:15.299Z,17.80
2018-12-26T23:13:46.985Z,17.07
2018-12-26T23:16:18.427Z,17.80
2018-12-26T23:18:50.253Z,17.67
2018-12-26T23:21:21.767Z,15.73
2018-12-26T23:23:53.202Z,16.93
2018-12-26T23:26:24.658Z,17.53
2018-12-26T23:28:56.199Z,16.83
2018-12-26T23:31:27.552Z,17.03
2018-12-26T23:33:58.989Z,15.87
2018-12-26T23:36:30.469Z,15.93
2018-12-26T23:39:01.909Z,16.90
2018-12-26T23:41:34.415Z,16.17
2018-12-26T23:44:06.140Z,15.60
2018-12-26T23:46:37.619Z,14.63
2018-12-26T23:49:09.062Z,15.83
2018-12-26T23:51:40.485Z,16.47
2018-12-26T23:54:11.946Z,15.83
2018-12-26T23:56:43.406Z,15.80
2018-12-26T23:59:16.046Z,15.70
